Time;durP1;ratioP1;P1;durP2;ratioP2;P2;SDS_P1;SDS_P2;PMS_P1;PMS_P2;Temp;Humidity;BMP_temperature;BMP_pressure;BME280_temperature;BME280_humidity;BME280_pressure;Samples;Min_cycle;Max_cycle;Signal;HPM_P1;HPM_P2
2023/05/05 12:09:49;;;;;;;8.00;4.47;;;23.40;71.70;;;;;;4921632;28;20502;-81
2023/05/05 12:12:16;;;;;;;8.77;3.57;;;23.40;72.10;;;;;;4922375;29;20911;-82
2023/05/05 12:14:50;;;;;;;7.33;3.33;;;23.30;69.50;;;;;;4920818;29;20949;-82
2023/05/05 12:17:18;;;;;;;6.43;3.20;;;23.30;68.90;;;;;;4920398;29;20840;-80
2023/05/05 12:19:49;;;;;;;6.27;3.20;;;23.20;70.00;;;;;;4920467;29;20819;-82
2023/05/05 12:22:21;;;;;;;13.73;4.30;;;23.20;68.70;;;;;;4935898;29;20459;-81
2023/05/05 12:24:57;;;;;;;4.43;3.07;;;23.20;68.90;;;;;;4946175;29;20479;-82
2023/05/05 12:27:25;;;;;;;10.07;4.10;;;23.20;71.70;;;;;;4942542;29;20475;-82
2023/05/05 12:29:53;;;;;;;6.33;3.97;;;23.20;71.20;;;;;;4945942;29;20439;-82
2023/05/05 12:32:21;;;;;;;12.40;4.97;;;23.20;71.40;;;;;;4945108;29;20438;-82
2023/05/05 12:34:52;;;;;;;6.50;3.80;;;23.20;71.50;;;;;;4941797;29;20438;-82
2023/05/05 12:37:19;;;;;;;6.90;3.47;;;23.20;71.60;;;;;;4946162;29;20443;-82
2023/05/05 12:39:46;;;;;;;19.30;4.60;;;23.20;71.50;;;;;;4944204;29;20993;-82
2023/05/05 12:42:15;;;;;;;8.43;3.87;;;23.20;71.70;;;;;;4949107;29;20442;-83
2023/05/05 12:44:43;;;;;;;6.43;3.77;;;23.30;71.80;;;;;;4950333;29;20487;-83
2023/05/05 12:47:10;;;;;;;8.67;3.60;;;23.30;71.90;;;;;;4946222;29;20443;-82
2023/05/05 12:49:51;;;;;;;11.97;4.57;;;23.20;71.90;;;;;;4948795;29;20444;-83
2023/05/05 12:52:19;;;;;;;6.47;3.83;;;23.30;72.00;;;;;;4948105;29;20440;-82
2023/05/05 12:54:56;;;;;;;6.00;3.93;;;23.20;72.00;;;;;;4949351;29;20951;-84
2023/05/05 12:57:26;;;;;;;6.00;3.10;;;23.30;72.10;;;;;;4948583;29;20445;-81
2023/05/05 12:59:53;;;;;;;5.50;3.73;;;23.20;72.90;;;;;;4946460;29;20510;-81
2023/05/05 13:02:20;;;;;;;6.97;4.00;;;23.30;72.10;;;;;;4945587;29;20530;-80
2023/05/05 13:04:51;;;;;;;6.43;3.70;;;23.30;72.10;;;;;;4947194;29;20480;-81
2023/05/05 13:07:20;;;;;;;5.73;3.80;;;23.20;72.00;;;;;;4946894;29;20525;-81
2023/05/05 13:09:47;;;;;;;7.30;3.37;;;23.40;72.30;;;;;;4945397;29;20583;-82
2023/05/05 13:12:15;;;;;;;4.00;3.30;;;23.20;72.20;;;;;;4947003;29;20474;-82
2023/05/05 13:14:43;;;;;;;4.30;2.80;;;23.20;72.20;;;;;;4946275;29;20460;-84
2023/05/05 13:17:10;;;;;;;7.93;3.60;;;23.20;72.20;;;;;;4946583;29;20444;-82
2023/05/05 13:19:40;;;;;;;7.33;3.47;;;23.20;72.20;;;;;;4949928;29;20477;-82
2023/05/05 13:22:09;;;;;;;3.77;3.03;;;23.40;72.50;;;;;;4954493;29;20443;-84
2023/05/05 13:24:36;;;;;;;5.80;2.70;;;23.20;69.30;;;;;;4946737;29;20893;-85
2023/05/05 13:27:04;;;;;;;4.27;2.37;;;23.10;68.30;;;;;;4943862;29;20500;-86
2023/05/05 13:29:31;;;;;;;3.30;2.27;;;23.10;68.40;;;;;;4946695;29;20507;-83
2023/05/05 13:32:01;;;;;;;4.63;3.10;;;23.00;68.20;;;;;;4942102;29;20459;-83
2023/05/05 13:34:27;;;;;;;4.40;3.23;;;23.00;69.60;;;;;;4939438;29;20447;-83
2023/05/05 13:36:54;;;;;;;4.80;3.60;;;23.00;70.40;;;;;;4937898;29;20453;-82
2023/05/05 13:39:21;;;;;;;4.33;3.17;;;23.00;70.50;;;;;;4937700;29;21059;-83
2023/05/05 13:41:48;;;;;;;4.70;2.70;;;23.00;70.60;;;;;;4937705;29;20445;-81
2023/05/05 13:44:16;;;;;;;4.07;2.60;;;23.10;70.80;;;;;;4937662;29;20491;-82
2023/05/05 13:46:43;;;;;;;3.93;2.00;;;23.10;70.80;;;;;;4937094;29;20456;-83
2023/05/05 13:49:11;;;;;;;2.67;2.37;;;23.10;69.60;;;;;;4936258;29;20951;-83
2023/05/05 13:51:38;;;;;;;6.70;2.73;;;23.00;69.20;;;;;;4953347;29;20454;-83
2023/05/05 13:54:06;;;;;;;3.20;1.90;;;23.00;69.00;;;;;;4955923;29;20883;-83
2023/05/05 13:56:33;;;;;;;4.73;2.23;;;22.90;69.00;;;;;;4957620;29;20793;-84
2023/05/05 13:59:01;;;;;;;5.10;2.43;;;22.90;69.10;;;;;;4958244;29;20462;-85
2023/05/05 14:01:28;;;;;;;2.77;2.37;;;22.90;69.30;;;;;;4956827;29;20445;-82
2023/05/05 14:03:56;;;;;;;4.37;2.77;;;22.90;70.20;;;;;;4956071;29;20492;-81
2023/05/05 14:06:24;;;;;;;3.70;2.27;;;22.90;70.00;;;;;;4956844;29;20507;-82
2023/05/05 14:08:51;;;;;;;6.10;2.57;;;22.90;69.50;;;;;;4956352;28;20493;-89
2023/05/05 14:11:19;;;;;;;3.80;2.20;;;22.80;69.40;;;;;;4952076;29;20541;-93
2023/05/05 14:13:46;;;;;;;2.90;2.60;;;22.80;69.40;;;;;;4939353;29;20527;-90
2023/05/05 14:16:13;;;;;;;3.70;2.17;;;22.80;69.40;;;;;;4936467;29;20486;-85
2023/05/05 14:18:40;;;;;;;2.30;2.07;;;22.90;69.60;;;;;;4936225;29;20467;-88
2023/05/05 14:21:07;;;;;;;2.67;2.00;;;22.80;69.50;;;;;;4935476;29;20447;-87
2023/05/05 14:23:35;;;;;;;2.37;1.87;;;22.80;69.50;;;;;;4936291;29;20456;-90
2023/05/05 14:26:02;;;;;;;4.90;2.33;;;22.80;69.50;;;;;;4937303;29;20502;-85
2023/05/05 14:28:28;;;;;;;3.10;1.83;;;22.70;69.30;;;;;;4957097;29;20964;-85
2023/05/05 14:30:55;;;;;;;3.30;1.90;;;22.70;69.30;;;;;;4958743;29;20465;-81
2023/05/05 14:33:22;;;;;;;3.17;1.97;;;22.70;69.40;;;;;;4958719;29;20449;-81
2023/05/05 14:35:49;;;;;;;3.20;1.70;;;22.70;69.30;;;;;;4958439;29;20451;-81
2023/05/05 14:38:16;;;;;;;2.80;1.97;;;22.70;69.30;;;;;;4956997;28;20489;-81
2023/05/05 14:40:44;;;;;;;2.63;2.43;;;22.70;69.30;;;;;;4955784;29;20447;-84
2023/05/05 14:43:10;;;;;;;8.80;2.17;;;22.70;69.30;;;;;;4956130;29;20447;-83
2023/05/05 14:45:37;;;;;;;3.10;2.00;;;22.70;69.80;;;;;;4955928;29;20838;-83
2023/05/05 14:48:04;;;;;;;2.53;2.33;;;22.80;69.80;;;;;;4956095;29;20447;-88
2023/05/05 14:50:31;;;;;;;4.40;2.17;;;22.80;69.80;;;;;;4956610;29;20995;-83
2023/05/05 14:52:58;;;;;;;2.30;2.10;;;22.90;69.90;;;;;;4956180;29;20955;-83
2023/05/05 14:55:25;;;;;;;2.77;2.07;;;22.90;69.80;;;;;;4956229;29;20777;-84
2023/05/05 14:57:53;;;;;;;2.07;1.83;;;22.90;70.60;;;;;;4956846;29;20505;-83
2023/05/05 15:00:20;;;;;;;3.23;1.87;;;22.90;69.80;;;;;;4956380;29;20451;-83
2023/05/05 15:02:47;;;;;;;3.10;2.50;;;22.90;69.80;;;;;;4956034;29;20930;-83
2023/05/05 15:05:14;;;;;;;3.10;2.07;;;22.90;69.80;;;;;;4955855;29;21039;-87
2023/05/05 15:07:41;;;;;;;2.87;2.30;;;22.90;69.80;;;;;;4955805;28;20826;-88
2023/05/05 15:40:10;;;;;;;2.50;2.23;;;22.80;70.40;;;;;;4954789;29;20522;-83
2023/05/05 15:42:37;;;;;;;2.63;1.53;;;22.80;70.60;;;;;;4938054;29;20448;-85
2023/05/05 15:45:05;;;;;;;2.20;1.80;;;22.80;69.60;;;;;;4954800;29;20454;-85
2023/05/05 15:47:32;;;;;;;4.33;2.17;;;22.80;69.40;;;;;;4954988;29;20514;-85
2023/05/05 15:49:58;;;;;;;2.67;2.10;;;22.80;70.70;;;;;;4954338;29;20457;-85
2023/05/05 15:52:25;;;;;;;2.90;2.10;;;22.80;70.80;;;;;;4954506;29;20450;-86
2023/05/05 15:54:52;;;;;;;3.67;1.70;;;22.80;70.90;;;;;;4954178;29;20446;-85
2023/05/05 15:57:20;;;;;;;2.97;2.20;;;23.00;70.80;;;;;;4954415;29;20473;-85
2023/05/05 15:59:50;;;;;;;4.90;2.00;;;22.80;71.00;;;;;;4951028;29;20535;-85
2023/05/05 16:02:16;;;;;;;3.33;2.03;;;22.80;70.70;;;;;;4952958;29;20442;-85
2023/05/05 16:04:43;;;;;;;3.97;1.87;;;22.80;71.00;;;;;;4952267;29;20449;-84
2023/05/05 16:07:10;;;;;;;3.20;1.83;;;23.00;71.20;;;;;;4951830;29;20499;-84
2023/05/05 16:09:37;;;;;;;4.37;1.60;;;22.80;70.60;;;;;;4952549;28;20600;-83
2023/05/05 16:12:04;;;;;;;4.70;1.80;;;22.80;70.70;;;;;;4952324;29;21035;-82
2023/05/05 16:14:32;;;;;;;3.83;2.53;;;22.80;70.70;;;;;;4953219;29;20934;-85
2023/05/05 16:16:59;;;;;;;4.60;1.70;;;22.80;70.60;;;;;;4953272;29;20537;-85
2023/05/05 16:19:26;;;;;;;3.10;1.63;;;22.90;70.70;;;;;;4953648;29;20463;-84
2023/05/05 16:21:53;;;;;;;2.40;1.90;;;22.80;70.60;;;;;;4954053;29;20454;-83
2023/05/05 16:24:20;;;;;;;2.03;1.83;;;22.90;70.80;;;;;;4954409;29;20446;-86
2023/05/05 16:26:47;;;;;;;5.43;1.90;;;22.90;70.70;;;;;;4954050;29;20493;-88
2023/05/05 16:29:15;;;;;;;2.77;1.70;;;22.80;70.70;;;;;;4953831;29;20851;-83
2023/05/05 16:31:44;;;;;;;3.43;1.73;;;22.80;70.60;;;;;;4953868;29;20442;-93
2023/05/05 16:34:11;;;;;;;2.13;1.70;;;22.80;70.70;;;;;;4955260;29;20482;-89
2023/05/05 19:22:28;;;;;;;1.20;1.00;;;22.60;70.40;;;;;;4933770;29;20502;-81
2023/05/05 19:24:55;;;;;;;2.87;1.80;;;22.50;70.40;;;;;;4936125;29;21005;-84
2023/05/05 19:27:22;;;;;;;1.87;1.67;;;22.60;70.30;;;;;;4936181;29;20490;-83
2023/05/05 19:29:51;;;;;;;4.77;1.33;;;22.60;70.40;;;;;;4936146;29;20448;-84
2023/05/05 19:32:18;;;;;;;2.30;1.40;;;22.60;70.20;;;;;;4919169;29;20503;-84
2023/05/05 19:34:44;;;;;;;2.47;1.13;;;22.60;70.20;;;;;;4936358;29;20448;-83
2023/05/05 19:37:11;;;;;;;2.33;1.30;;;22.60;70.10;;;;;;4936632;29;20447;-83
2023/05/05 19:39:41;;;;;;;1.50;1.40;;;22.80;70.30;;;;;;4936032;29;20443;-85
2023/05/05 19:42:08;;;;;;;1.93;1.43;;;22.70;70.20;;;;;;4935931;29;20456;-84
2023/05/05 19:44:35;;;;;;;1.63;1.20;;;22.70;70.10;;;;;;4936531;29;20451;-84
2023/05/05 19:47:02;;;;;;;1.30;1.20;;;22.70;70.10;;;;;;4935782;29;20577;-84
2023/05/05 19:49:29;;;;;;;2.60;1.20;;;22.70;70.30;;;;;;4936138;29;20469;-83
2023/05/05 19:51:56;;;;;;;5.30;1.53;;;22.70;70.20;;;;;;4936072;29;20516;-84
2023/05/05 19:54:24;;;;;;;2.90;1.37;;;22.70;70.30;;;;;;4936133;29;20456;-86
2023/05/05 19:56:53;;;;;;;1.67;1.23;;;22.70;70.30;;;;;;4936239;29;20489;-86
2023/05/05 19:59:19;;;;;;;2.27;1.20;;;22.70;70.40;;;;;;4936219;29;20939;-85
2023/05/05 20:01:46;;;;;;;2.80;0.80;;;22.70;70.30;;;;;;4919051;29;20450;-85
2023/05/05 20:04:13;;;;;;;1.30;1.20;;;22.70;70.30;;;;;;4936068;29;20453;-84
2023/05/05 20:06:40;;;;;;;1.67;1.57;;;22.70;70.40;;;;;;4935745;29;20480;-89
2023/05/05 20:09:07;;;;;;;2.47;1.47;;;22.70;70.40;;;;;;4935997;29;20481;-83
2023/05/05 20:11:34;;;;;;;2.20;1.10;;;22.70;70.30;;;;;;4935793;29;20868;-85
2023/05/05 20:14:02;;;;;;;2.30;1.10;;;22.70;70.40;;;;;;4935467;29;21026;-83
2023/05/05 20:16:30;;;;;;;1.40;1.30;;;22.70;70.30;;;;;;4936173;29;20448;-83
2023/05/05 20:18:56;;;;;;;2.47;1.40;;;22.70;70.30;;;;;;4936683;29;20454;-82
2023/05/05 20:21:23;;;;;;;1.30;1.20;;;22.70;70.30;;;;;;4939429;29;20784;-83
2023/05/05 20:23:50;;;;;;;2.37;1.20;;;22.70;70.40;;;;;;4938817;29;20482;-84
2023/05/05 20:26:17;;;;;;;2.27;1.30;;;22.70;70.40;;;;;;4939347;29;20486;-82
2023/05/05 20:28:44;;;;;;;1.30;1.20;;;22.70;70.40;;;;;;4939292;29;20806;-83
2023/05/05 20:31:14;;;;;;;1.93;1.40;;;22.70;70.40;;;;;;4939022;29;20554;-82
2023/05/05 20:33:41;;;;;;;1.30;1.20;;;22.70;70.50;;;;;;4939383;29;20828;-82
2023/05/05 20:36:08;;;;;;;1.40;1.30;;;22.70;70.50;;;;;;4939146;29;20931;-81
2023/05/05 20:38:35;;;;;;;2.13;1.57;;;22.70;70.50;;;;;;4938978;29;20464;-82
2023/05/05 20:41:02;;;;;;;1.20;1.10;;;22.70;70.50;;;;;;4939049;29;20451;-83
2023/05/05 20:43:28;;;;;;;4.53;1.00;;;22.70;70.50;;;;;;4938971;29;20535;-82
2023/05/05 20:45:55;;;;;;;2.40;1.13;;;22.70;71.40;;;;;;4938607;29;20443;-82
2023/05/05 20:48:23;;;;;;;1.57;1.00;;;22.70;70.50;;;;;;4938913;29;20447;-84
2023/05/05 20:50:51;;;;;;;1.30;1.20;;;22.70;70.50;;;;;;4938804;29;20457;-82
2023/05/05 20:53:19;;;;;;;1.20;1.00;;;22.70;70.60;;;;;;4938892;29;20513;-84
2023/05/05 20:55:46;;;;;;;1.70;1.47;;;22.70;70.50;;;;;;4938705;29;20453;-83
2023/05/05 20:58:13;;;;;;;1.20;1.10;;;22.70;70.60;;;;;;4938647;29;20443;-85
2023/05/05 21:00:40;;;;;;;3.33;1.37;;;22.70;70.50;;;;;;4938923;29;20455;-90
2023/05/05 21:03:07;;;;;;;1.60;1.37;;;22.70;70.70;;;;;;4938583;29;20493;-87
2023/05/05 21:05:36;;;;;;;1.63;1.10;;;22.90;70.90;;;;;;4938530;29;20462;-82
2023/05/05 21:08:02;;;;;;;1.10;0.90;;;22.70;70.60;;;;;;4938985;29;20498;-82
2023/05/05 21:10:31;;;;;;;1.80;1.30;;;22.70;70.60;;;;;;4938583;29;20540;-83
2023/05/05 21:12:58;;;;;;;1.33;1.20;;;22.70;70.60;;;;;;4938717;29;20537;-82
2023/05/05 21:15:25;;;;;;;1.80;1.00;;;22.70;70.60;;;;;;4938417;29;20444;-83
2023/05/05 21:17:53;;;;;;;1.40;1.20;;;22.70;70.70;;;;;;4938426;29;20455;-82
2023/05/05 21:20:20;;;;;;;1.40;1.13;;;22.70;70.70;;;;;;4938546;29;20454;-83
2023/05/05 21:22:48;;;;;;;1.97;1.00;;;22.70;70.80;;;;;;4938274;29;20448;-82
2023/05/05 21:25:17;;;;;;;1.87;1.37;;;22.70;70.90;;;;;;4937994;29;20815;-84
2023/05/05 21:27:44;;;;;;;3.37;1.10;;;22.70;70.80;;;;;;4943077;29;20489;-96
2023/05/05 21:30:12;;;;;;;1.67;1.20;;;22.90;71.00;;;;;;4956323;28;20434;-84
2023/05/05 21:32:38;;;;;;;2.80;1.10;;;22.80;70.80;;;;;;4957138;29;20446;-84
2023/05/05 21:35:07;;;;;;;2.53;1.50;;;22.70;70.70;;;;;;4958830;29;20446;-84
2023/05/05 21:37:34;;;;;;;3.33;1.50;;;22.70;70.70;;;;;;4957115;28;20470;-84
2023/05/05 21:40:02;;;;;;;1.30;0.97;;;22.70;70.80;;;;;;4959745;29;20442;-84
2023/05/05 21:42:29;;;;;;;1.30;1.00;;;22.70;70.80;;;;;;4958602;29;20450;-84
2023/05/05 21:44:56;;;;;;;2.23;1.30;;;22.70;71.60;;;;;;4959974;29;20442;-85
2023/05/05 21:47:23;;;;;;;1.40;1.10;;;22.70;70.70;;;;;;4958656;29;20496;-96
2023/05/05 21:49:50;;;;;;;1.37;1.23;;;22.70;70.80;;;;;;4958304;29;21004;-84
2023/05/05 21:52:17;;;;;;;1.60;1.20;;;22.70;70.80;;;;;;4958552;29;20542;-88
2023/05/05 21:54:43;;;;;;;1.40;1.10;;;22.70;70.80;;;;;;4957947;29;20453;-86
2023/05/05 21:57:12;;;;;;;1.43;1.20;;;22.70;70.80;;;;;;4957760;29;20488;-84
2023/05/05 21:59:38;;;;;;;1.20;0.90;;;22.80;70.90;;;;;;4957469;29;20446;-84
2023/05/05 22:02:05;;;;;;;1.40;1.10;;;22.70;70.80;;;;;;4958070;29;20469;-85
2023/05/05 22:04:32;;;;;;;1.33;1.10;;;22.70;70.80;;;;;;4957634;29;20451;-84
2023/05/05 22:06:59;;;;;;;1.83;1.30;;;22.70;70.70;;;;;;4958075;28;20492;-85
2023/05/05 22:09:25;;;;;;;1.50;0.97;;;22.80;70.80;;;;;;4957004;29;20446;-85
2023/05/05 22:11:52;;;;;;;1.40;1.00;;;22.70;70.80;;;;;;4957468;29;20449;-96
2023/05/05 22:14:20;;;;;;;1.10;0.90;;;22.70;70.80;;;;;;4957945;29;20450;-85
2023/05/05 22:16:47;;;;;;;1.30;1.10;;;22.60;70.60;;;;;;4956475;29;20442;-96
2023/05/05 22:19:14;;;;;;;1.17;1.07;;;22.60;70.60;;;;;;4957012;29;20542;-85
2023/05/05 22:21:41;;;;;;;1.37;1.13;;;22.70;70.70;;;;;;4956676;29;20454;-85
2023/05/05 22:24:08;;;;;;;1.30;1.00;;;22.80;70.80;;;;;;4956454;28;20477;-85
2023/05/05 22:26:35;;;;;;;1.40;1.20;;;22.60;70.60;;;;;;4957350;29;20482;-85
2023/05/05 22:29:01;;;;;;;1.27;1.13;;;22.60;70.60;;;;;;4957140;29;20538;-86
2023/05/05 22:31:29;;;;;;;1.20;1.10;;;22.60;70.60;;;;;;4956666;29;20816;-84
2023/05/05 22:33:56;;;;;;;1.33;1.23;;;22.80;70.80;;;;;;4956554;29;20454;-85
2023/05/05 22:36:23;;;;;;;1.47;1.33;;;22.60;70.60;;;;;;4957310;29;20454;-96
2023/05/05 22:38:50;;;;;;;1.20;0.90;;;22.60;70.60;;;;;;4957017;28;20459;-95
2023/05/05 22:41:17;;;;;;;1.30;1.20;;;22.80;70.80;;;;;;4955886;28;20445;-84
2023/05/05 22:43:43;;;;;;;1.30;1.20;;;22.60;70.60;;;;;;4956365;29;20446;-85
2023/05/05 22:46:10;;;;;;;1.20;1.10;;;22.60;70.60;;;;;;4956600;29;20446;-85
2023/05/05 22:48:39;;;;;;;1.10;1.00;;;22.60;70.60;;;;;;4957412;29;20548;-89
2023/05/05 22:51:06;;;;;;;1.10;1.00;;;22.60;70.60;;;;;;4956599;29;20452;-84
2023/05/05 22:53:33;;;;;;;1.43;1.33;;;22.60;70.60;;;;;;4957096;29;20941;-96
2023/05/05 22:55:59;;;;;;;2.70;1.00;;;22.60;70.60;;;;;;4959581;29;20442;-85
2023/05/05 22:58:26;;;;;;;1.30;1.00;;;22.60;70.50;;;;;;4957212;29;20438;-92
2023/05/05 23:00:53;;;;;;;1.20;0.90;;;22.60;70.50;;;;;;4957241;29;20533;-96
2023/05/05 23:03:20;;;;;;;1.33;1.07;;;22.60;70.50;;;;;;4956782;29;20450;-84
2023/05/05 23:05:48;;;;;;;1.10;0.93;;;22.60;70.50;;;;;;4956036;29;20438;-84
2023/05/05 23:08:15;;;;;;;1.10;0.80;;;22.60;70.50;;;;;;4956372;28;20497;-85
2023/05/05 23:10:41;;;;;;;1.43;0.80;;;22.60;70.50;;;;;;4956498;29;20793;-85
2023/05/05 23:13:08;;;;;;;1.20;1.00;;;22.70;70.60;;;;;;4955477;29;20449;-84
2023/05/05 23:15:35;;;;;;;2.20;1.27;;;22.70;70.60;;;;;;4956043;29;20980;-95
2023/05/05 23:18:02;;;;;;;1.57;1.47;;;22.60;70.50;;;;;;4955707;29;20973;-96
2023/05/05 23:20:28;;;;;;;1.83;1.20;;;22.70;70.50;;;;;;4956317;29;20448;-85
2023/05/05 23:22:56;;;;;;;1.40;1.30;;;22.70;70.60;;;;;;4956524;29;20835;-84
2023/05/05 23:25:23;;;;;;;1.17;0.90;;;22.60;70.40;;;;;;4956990;29;20933;-84
2023/05/05 23:27:50;;;;;;;1.20;1.10;;;22.50;70.40;;;;;;4955631;29;20836;-85
2023/05/05 23:30:17;;;;;;;1.20;1.00;;;22.50;70.30;;;;;;4956965;29;20450;-95
2023/05/05 23:32:44;;;;;;;1.20;1.00;;;22.50;70.40;;;;;;4955638;29;20791;-85
2023/05/05 23:35:11;;;;;;;1.40;1.23;;;22.50;70.30;;;;;;4956510;29;20549;-84
2023/05/05 23:37:38;;;;;;;1.20;1.00;;;22.50;70.30;;;;;;4957056;28;20552;-84
2023/05/05 23:40:08;;;;;;;1.30;1.10;;;22.50;70.40;;;;;;4956870;29;20453;-84
2023/05/05 23:42:35;;;;;;;1.43;1.10;;;22.50;70.40;;;;;;4944766;29;20798;-86
2023/05/05 23:45:01;;;;;;;1.40;1.13;;;22.50;70.40;;;;;;4937794;29;20943;-84
2023/05/05 23:47:28;;;;;;;1.60;1.00;;;22.50;70.30;;;;;;4937401;29;20526;-84
2023/05/05 23:49:55;;;;;;;1.30;1.20;;;22.50;70.40;;;;;;4937035;29;20451;-96
2023/05/05 23:52:22;;;;;;;1.30;1.20;;;22.70;70.60;;;;;;4936529;29;20447;-85
2023/05/05 23:54:49;;;;;;;1.40;1.10;;;22.50;70.30;;;;;;4939595;29;20448;-95
2023/05/05 23:57:17;;;;;;;1.20;1.00;;;22.50;70.40;;;;;;4941071;29;20449;-84
2023/05/05 23:59:44;;;;;;;2.17;1.30;;;22.50;70.40;;;;;;4940550;29;20448;-84
